Time;durP1;ratioP1;P1;durP2;ratioP2;P2;SDS_P1;SDS_P2;PMS_P1;PMS_P2;Temp;Humidity;BMP_temperature;BMP_pressure;BME280_temperature;BME280_humidity;BME280_pressure;Samples;Min_cycle;Max_cycle;Signal;HPM_P1;HPM_P2
2022/11/26 00:01:41;;;;;;;8.90;5.72;;;;;;;4.67;100.00;100709.13;6193920;28;20129;-75
2022/11/26 00:04:41;;;;;;;12.05;7.07;;;;;;;4.64;100.00;100700.56;6195360;28;20042;-75
2022/11/26 00:07:55;;;;;;;13.77;7.47;;;;;;;4.74;100.00;100708.94;6193951;28;20133;-74
2022/11/26 00:10:56;;;;;;;11.60;7.05;;;;;;;4.69;100.00;100704.75;6195140;28;20489;-75
2022/11/26 00:13:57;;;;;;;15.18;6.55;;;;;;;4.72;100.00;100713.31;6195037;28;20079;-74
2022/11/26 00:16:58;;;;;;;14.43;7.38;;;;;;;4.77;100.00;100706.25;6195072;28;20046;-77
2022/11/26 00:19:59;;;;;;;9.98;6.85;;;;;;;4.80;100.00;100713.94;6278767;28;20123;-77
2022/11/26 00:23:03;;;;;;;12.35;6.80;;;;;;;4.80;100.00;100719.13;6193742;28;20518;-76
2022/11/26 00:26:10;;;;;;;10.20;6.43;;;;;;;4.80;100.00;100720.88;6194875;28;20183;-76
2022/11/26 00:29:11;;;;;;;15.80;7.93;;;;;;;4.75;100.00;100717.53;6194795;28;20502;-76
2022/11/26 00:32:16;;;;;;;12.07;7.53;;;;;;;4.70;100.00;100724.56;6194706;28;20052;-77
2022/11/26 00:35:18;;;;;;;12.68;6.88;;;;;;;4.74;100.00;100724.44;6177318;28;20054;-76
2022/11/26 00:38:22;;;;;;;16.85;8.32;;;;;;;4.64;100.00;100726.41;6193331;28;20566;-77
2022/11/26 00:41:37;;;;;;;17.33;7.95;;;;;;;4.58;100.00;100724.00;6194525;28;20058;-77
2022/11/26 00:44:37;;;;;;;14.00;8.05;;;;;;;4.55;100.00;100718.03;6194653;28;20038;-76
2022/11/26 00:47:38;;;;;;;21.10;8.80;;;;;;;4.51;100.00;100717.28;6193333;28;20560;-76
2022/11/26 00:50:47;;;;;;;10.13;5.55;;;;;;;4.56;100.00;100719.75;6193150;28;20406;-77
2022/11/26 00:53:51;;;;;;;12.55;7.10;;;;;;;4.63;100.00;100734.19;6193387;28;20486;-77
2022/11/26 00:56:52;;;;;;;17.80;8.32;;;;;;;4.64;100.00;100731.59;6193225;28;20478;-76
2022/11/26 00:59:53;;;;;;;12.32;6.68;;;;;;;4.52;100.00;100726.72;6192853;28;20494;-75
2022/11/26 01:02:54;;;;;;;15.27;7.68;;;;;;;4.49;100.00;100725.94;6295109;28;20081;-75
2022/11/26 01:05:57;;;;;;;11.60;6.83;;;;;;;4.54;100.00;100731.88;6193017;28;20478;-75
2022/11/26 01:08:58;;;;;;;14.70;6.65;;;;;;;4.52;100.00;100723.31;6176857;28;20141;-75
2022/11/26 01:11:59;;;;;;;17.45;7.97;;;;;;;4.62;100.00;100733.34;6195570;28;20543;-75
2022/11/26 01:15:00;;;;;;;13.05;8.48;;;;;;;4.61;100.00;100733.41;6198428;28;20046;-74
2022/11/26 01:18:01;;;;;;;15.27;8.00;;;;;;;4.72;100.00;100731.41;6197165;28;20472;-74
2022/11/26 01:21:01;;;;;;;14.73;8.32;;;;;;;4.75;100.00;100736.47;6198239;28;20074;-75
2022/11/26 01:24:02;;;;;;;19.35;8.00;;;;;;;4.75;100.00;100740.81;6198299;28;20046;-75
2022/11/26 01:27:11;;;;;;;15.05;6.55;;;;;;;4.63;100.00;100744.53;6197123;28;20058;-74
2022/11/26 01:30:27;;;;;;;17.58;7.93;;;;;;;4.67;100.00;100751.31;6196928;28;20073;-74
2022/11/26 01:33:28;;;;;;;11.27;6.28;;;;;;;4.66;100.00;100756.56;6198168;28;20046;-75
2022/11/26 01:36:30;;;;;;;15.32;8.15;;;;;;;4.67;100.00;100761.66;6197988;28;20049;-75
2022/11/26 01:39:31;;;;;;;14.13;6.47;;;;;;;4.65;100.00;100750.53;6197951;28;20038;-74
2022/11/26 01:42:42;;;;;;;19.85;7.78;;;;;;;4.53;100.00;100756.88;6196672;28;20419;-76
2022/11/26 01:45:43;;;;;;;14.90;9.20;;;;;;;4.35;100.00;100758.16;6196807;28;20047;-76
2022/11/26 01:48:46;;;;;;;14.75;7.65;;;;;;;4.40;100.00;100758.88;6197879;28;20096;-76
2022/11/26 01:51:52;;;;;;;16.15;8.02;;;;;;;4.50;100.00;100754.34;6196605;28;20046;-76
2022/11/26 01:54:53;;;;;;;15.55;7.63;;;;;;;4.52;100.00;100757.75;6197741;28;20092;-76
2022/11/26 01:57:54;;;;;;;17.05;8.30;;;;;;;4.53;100.00;100762.03;6180237;28;20107;-75
2022/11/26 02:00:55;;;;;;;15.75;8.10;;;;;;;4.47;100.00;100769.94;6196213;28;20059;-76
2022/11/26 02:04:16;;;;;;;12.45;7.80;;;;;;;4.54;100.00;100762.88;6196412;28;20559;-76
2022/11/26 02:07:19;;;;;;;11.45;7.22;;;;;;;4.57;100.00;100762.78;6197560;28;20168;-76
2022/11/26 02:10:20;;;;;;;17.15;9.07;;;;;;;4.53;100.00;100768.91;6197340;28;20053;-77
2022/11/26 02:13:24;;;;;;;17.17;8.68;;;;;;;4.44;100.00;100767.41;6197419;28;20054;-76
2022/11/26 02:16:30;;;;;;;16.60;8.82;;;;;;;4.54;100.00;100779.22;6196111;28;20490;-76
2022/11/26 02:19:57;;;;;;;12.73;7.45;;;;;;;4.52;100.00;100780.16;6197193;28;20070;-76
2022/11/26 02:23:19;;;;;;;13.15;7.53;;;;;;;4.57;100.00;100776.59;6218795;28;20054;-77
2022/11/26 02:26:54;;;;;;;12.82;8.60;;;;;;;4.57;100.00;100763.66;6195931;28;20057;-74
2022/11/26 02:30:03;;;;;;;15.90;8.52;;;;;;;4.64;100.00;100772.94;6197177;28;20143;-76
2022/11/26 02:33:19;;;;;;;17.25;8.60;;;;;;;4.67;100.00;100773.75;6196965;28;20046;-76
2022/11/26 02:36:34;;;;;;;15.52;8.73;;;;;;;4.59;100.00;100789.44;6196892;28;20479;-76
2022/11/26 02:39:35;;;;;;;15.30;7.63;;;;;;;4.56;100.00;100792.13;6195739;28;20042;-76
2022/11/26 02:42:38;;;;;;;16.95;7.43;;;;;;;4.58;100.00;100792.94;6196687;28;20077;-76
2022/11/26 02:45:42;;;;;;;18.05;7.78;;;;;;;4.59;100.00;100800.66;6196750;28;20681;-77
2022/11/26 02:48:50;;;;;;;16.73;9.40;;;;;;;4.60;100.00;100797.16;6196599;28;20046;-77
2022/11/26 02:51:57;;;;;;;18.52;9.15;;;;;;;4.58;100.00;100795.53;6196583;28;20050;-76
2022/11/26 02:55:00;;;;;;;18.20;7.25;;;;;;;4.49;100.00;100800.91;6196604;28;20483;-76
2022/11/26 02:58:01;;;;;;;20.30;9.35;;;;;;;4.56;100.00;100803.31;6195357;28;20088;-76
2022/11/26 03:01:18;;;;;;;17.58;9.05;;;;;;;4.63;100.00;100801.41;6195039;28;20050;-76
2022/11/26 03:04:24;;;;;;;19.33;8.52;;;;;;;4.64;100.00;100809.13;6297353;28;20415;-76
2022/11/26 03:07:28;;;;;;;17.85;9.05;;;;;;;4.62;100.00;100805.75;6195277;28;20096;-77
2022/11/26 03:10:30;;;;;;;19.25;8.52;;;;;;;4.60;100.00;100794.59;6195158;28;20171;-76
2022/11/26 03:13:33;;;;;;;14.27;8.20;;;;;;;4.74;100.00;100811.50;6195210;28;20509;-76
2022/11/26 03:16:34;;;;;;;16.45;8.00;;;;;;;4.71;100.00;100808.97;6195054;28;20414;-76
2022/11/26 03:19:35;;;;;;;16.17;8.63;;;;;;;4.69;100.00;100810.75;6194986;28;20048;-76
2022/11/26 03:22:36;;;;;;;20.92;9.02;;;;;;;4.67;100.00;100810.78;6196063;28;20043;-76
2022/11/26 03:25:36;;;;;;;24.20;9.27;;;;;;;4.64;100.00;100810.88;6195960;28;20049;-77
2022/11/26 03:28:37;;;;;;;19.42;9.27;;;;;;;4.70;100.00;100809.88;6195945;28;20542;-76
2022/11/26 03:31:38;;;;;;;22.45;9.80;;;;;;;4.71;100.00;100806.41;6194661;28;20047;-76
2022/11/26 03:34:38;;;;;;;20.08;9.73;;;;;;;4.70;100.00;100815.06;6194502;28;20052;-76
2022/11/26 03:37:39;;;;;;;25.75;9.75;;;;;;;4.72;100.00;100819.28;6194621;28;20053;-76
2022/11/26 03:40:40;;;;;;;16.45;8.88;;;;;;;4.77;100.00;100826.94;6279988;28;20046;-76
2022/11/26 03:43:41;;;;;;;17.50;8.27;;;;;;;4.75;100.00;100816.63;6195599;28;20042;-76
2022/11/26 03:46:41;;;;;;;22.17;9.38;;;;;;;4.76;100.00;100830.41;6195564;28;20050;-76
2022/11/26 03:49:42;;;;;;;12.77;7.95;;;;;;;4.75;100.00;100828.72;6194651;28;20113;-76
2022/11/26 03:52:43;;;;;;;26.42;10.88;;;;;;;4.74;100.00;100830.44;6195475;28;20057;-76
2022/11/26 03:55:44;;;;;;;22.88;9.82;;;;;;;4.80;100.00;100826.88;6194287;28;20042;-76
2022/11/26 03:58:45;;;;;;;17.50;8.00;;;;;;;4.71;100.00;100833.09;6195337;28;20045;-75
2022/11/26 04:01:45;;;;;;;21.65;10.70;;;;;;;4.79;100.00;100835.50;6193819;28;20085;-75
2022/11/26 04:04:46;;;;;;;17.85;9.57;;;;;;;4.80;100.00;100832.88;6195201;28;20046;-75
2022/11/26 04:07:47;;;;;;;17.23;10.45;;;;;;;4.83;100.00;100830.22;6194038;28;20418;-75
2022/11/26 04:10:47;;;;;;;20.92;10.73;;;;;;;4.77;100.00;100832.09;6193902;28;20125;-74
2022/11/26 04:13:48;;;;;;;24.13;10.07;;;;;;;4.82;100.00;100833.69;6194100;28;20422;-75
2022/11/26 04:16:49;;;;;;;15.85;7.80;;;;;;;4.81;100.00;100833.72;6195118;28;20407;-75
2022/11/26 04:19:49;;;;;;;23.08;10.52;;;;;;;4.83;100.00;100829.38;6193825;28;20038;-77
2022/11/26 04:22:50;;;;;;;21.38;11.40;;;;;;;4.86;100.00;100839.66;6193649;28;20046;-76
2022/11/26 04:25:51;;;;;;;26.65;13.02;;;;;;;4.90;100.00;100843.00;6193661;28;20050;-77
2022/11/26 04:28:51;;;;;;;27.90;10.75;;;;;;;4.85;100.00;100835.34;6193714;28;20046;-76
2022/11/26 04:31:52;;;;;;;21.67;9.93;;;;;;;4.88;100.00;100835.28;6193468;28;20046;-77
2022/11/26 04:34:53;;;;;;;18.70;9.95;;;;;;;4.93;100.00;100840.34;6194888;28;20046;-77
2022/11/26 04:37:53;;;;;;;26.17;9.68;;;;;;;4.85;100.00;100838.78;6177297;28;20062;-77
2022/11/26 04:40:54;;;;;;;18.05;10.00;;;;;;;4.88;100.00;100837.88;6194677;28;20050;-77
2022/11/26 04:43:55;;;;;;;25.63;10.57;;;;;;;4.89;100.00;100838.72;6193394;28;20440;-76
2022/11/26 04:46:55;;;;;;;27.40;12.25;;;;;;;4.91;100.00;100839.53;6193842;28;20042;-77
2022/11/26 04:49:57;;;;;;;29.33;13.95;;;;;;;4.97;100.00;100835.03;6193361;28;20072;-77
2022/11/26 04:52:58;;;;;;;21.90;10.27;;;;;;;5.01;100.00;100838.41;6194436;28;20054;-76
2022/11/26 04:55:59;;;;;;;18.45;9.32;;;;;;;5.03;100.00;100841.81;6194495;28;20042;-77
2022/11/26 04:59:02;;;;;;;29.40;13.07;;;;;;;5.00;100.00;100839.28;6193115;28;20500;-76
2022/11/26 05:02:05;;;;;;;21.65;10.90;;;;;;;4.99;100.00;100848.78;6176688;28;20504;-77
2022/11/26 05:05:06;;;;;;;22.25;10.75;;;;;;;5.06;100.00;100846.88;6278122;28;20098;-77
2022/11/26 05:08:07;;;;;;;21.42;10.05;;;;;;;5.06;100.00;100846.88;6193084;28;20050;-76
2022/11/26 05:11:07;;;;;;;18.13;9.65;;;;;;;5.00;100.00;100858.25;6193260;28;20050;-77
2022/11/26 05:14:08;;;;;;;16.75;9.00;;;;;;;4.94;100.00;100854.94;6192939;28;20045;-77
2022/11/26 05:17:09;;;;;;;14.27;7.45;;;;;;;4.97;100.00;100854.88;6194195;28;20482;-77
2022/11/26 05:20:10;;;;;;;22.08;11.32;;;;;;;4.99;100.00;100858.28;6194003;28;20042;-76
2022/11/26 05:23:11;;;;;;;17.17;9.23;;;;;;;4.90;100.00;100861.97;6192900;28;20045;-76
2022/11/26 05:26:12;;;;;;;18.60;9.48;;;;;;;5.01;100.00;100865.13;6194024;28;20050;-76
2022/11/26 05:29:13;;;;;;;14.32;7.93;;;;;;;5.02;100.00;100869.41;6176490;28;20121;-76
2022/11/26 05:32:13;;;;;;;21.35;9.68;;;;;;;4.92;100.00;100873.13;6193796;28;20065;-77
2022/11/26 05:35:14;;;;;;;17.10;9.98;;;;;;;4.95;100.00;100880.78;6192793;28;20455;-77
2022/11/26 05:38:15;;;;;;;18.50;9.70;;;;;;;4.89;100.00;100880.09;6192672;28;20092;-77
2022/11/26 05:41:16;;;;;;;18.33;8.95;;;;;;;4.91;100.00;100883.50;6192490;28;20047;-77
2022/11/26 05:44:17;;;;;;;18.25;8.50;;;;;;;4.77;100.00;100886.41;6192480;28;20053;-76
2022/11/26 05:47:17;;;;;;;21.95;9.38;;;;;;;4.76;100.00;100882.13;6193688;28;20053;-76
2022/11/26 05:50:20;;;;;;;18.42;8.75;;;;;;;4.67;100.00;100896.09;6277955;28;20054;-74
2022/11/26 05:53:21;;;;;;;16.65;9.48;;;;;;;4.78;100.00;100903.63;6193346;28;20054;-75
2022/11/26 05:56:22;;;;;;;16.30;8.10;;;;;;;4.71;100.00;100899.47;6192384;28;20552;-76
2022/11/26 05:59:23;;;;;;;18.48;9.32;;;;;;;4.63;100.00;100910.84;6196758;28;20038;-76
2022/11/26 06:02:24;;;;;;;20.73;8.40;;;;;;;4.68;100.00;100917.66;6197454;28;20117;-75
2022/11/26 06:05:25;;;;;;;17.13;8.02;;;;;;;4.58;100.00;100919.59;6196338;28;20091;-75
2022/11/26 06:08:26;;;;;;;16.35;7.47;;;;;;;4.65;100.00;100921.13;6196351;28;20047;-75
2022/11/26 06:11:27;;;;;;;23.58;8.85;;;;;;;4.61;100.00;100924.66;6196282;28;20050;-75
2022/11/26 06:14:27;;;;;;;24.58;9.07;;;;;;;4.53;100.00;100921.41;6196176;28;20414;-75
2022/11/26 06:17:28;;;;;;;14.70;7.95;;;;;;;4.69;100.00;100932.25;6197329;28;20053;-75
2022/11/26 06:20:29;;;;;;;19.15;8.75;;;;;;;4.70;100.00;100932.25;6281908;28;20534;-75
2022/11/26 06:23:33;;;;;;;22.65;9.00;;;;;;;4.76;100.00;100942.44;6298132;28;20046;-75
2022/11/26 06:26:34;;;;;;;18.45;9.40;;;;;;;4.74;100.00;100940.78;6196011;28;20050;-75
2022/11/26 06:29:35;;;;;;;18.88;8.52;;;;;;;4.74;100.00;100944.22;6197179;28;20121;-75
2022/11/26 06:32:36;;;;;;;24.27;10.10;;;;;;;4.76;100.00;100946.78;6195782;28;20038;-75
2022/11/26 06:35:39;;;;;;;19.80;9.55;;;;;;;4.70;100.00;100958.09;6196977;28;20053;-75
2022/11/26 06:38:39;;;;;;;21.45;10.80;;;;;;;4.69;100.00;100966.72;6195888;28;20043;-75
2022/11/26 06:41:40;;;;;;;18.77;10.45;;;;;;;4.70;100.00;100968.44;6196719;28;20047;-76
2022/11/26 06:44:41;;;;;;;22.90;10.80;;;;;;;4.73;100.00;100968.34;6195635;28;20050;-74
2022/11/26 06:47:42;;;;;;;24.80;8.85;;;;;;;4.84;100.00;100973.31;6195562;28;20145;-74
2022/11/26 06:50:43;;;;;;;17.80;8.50;;;;;;;4.87;100.00;100970.63;6195542;28;20069;-74
2022/11/26 06:53:43;;;;;;;19.00;10.32;;;;;;;4.88;100.00;100964.59;6280826;28;20070;-74
2022/11/26 06:56:44;;;;;;;23.27;10.48;;;;;;;4.95;100.00;100963.56;6196603;28;20460;-74
2022/11/26 06:59:45;;;;;;;18.50;8.82;;;;;;;4.95;100.00;100966.13;6195032;28;20094;-75
2022/11/26 07:02:46;;;;;;;18.80;8.50;;;;;;;4.94;100.00;100967.03;6280243;28;20050;-74
2022/11/26 07:05:47;;;;;;;17.08;9.20;;;;;;;4.94;100.00;100963.56;6196400;28;20042;-74
2022/11/26 07:08:48;;;;;;;16.60;9.20;;;;;;;4.99;100.00;100969.50;6194995;28;20490;-75
2022/11/26 07:11:49;;;;;;;21.37;9.00;;;;;;;5.01;100.00;100973.75;6194852;28;20074;-75
2022/11/26 07:14:50;;;;;;;17.70;9.98;;;;;;;4.98;100.00;100971.25;6195024;28;20049;-75
2022/11/26 07:17:51;;;;;;;18.35;9.25;;;;;;;4.90;100.00;100970.56;6297095;28;20483;-75
2022/11/26 07:20:51;;;;;;;24.42;10.77;;;;;;;5.00;100.00;100966.03;6194917;28;20066;-75
2022/11/26 07:23:53;;;;;;;22.48;7.93;;;;;;;4.97;100.00;100972.13;6194836;28;20121;-75
2022/11/26 07:26:55;;;;;;;21.17;10.47;;;;;;;5.02;100.00;100980.66;6194859;28;20049;-76
2022/11/26 07:29:55;;;;;;;18.03;9.67;;;;;;;5.05;100.00;100990.91;6194663;28;20080;-75
2022/11/26 07:32:56;;;;;;;18.38;9.13;;;;;;;5.07;100.00;100983.13;6194689;28;20050;-75
2022/11/26 07:36:02;;;;;;;16.42;7.90;;;;;;;5.10;100.00;100985.63;6194550;28;20434;-75
2022/11/26 07:39:03;;;;;;;25.02;9.55;;;;;;;5.13;100.00;100995.91;6195665;28;20115;-74
2022/11/26 07:42:03;;;;;;;20.45;9.57;;;;;;;5.12;100.00;100988.16;6194409;28;20490;-74
2022/11/26 07:45:05;;;;;;;19.17;9.77;;;;;;;5.20;100.00;100999.19;6194407;28;20042;-73
2022/11/26 07:48:08;;;;;;;18.10;7.90;;;;;;;5.19;100.00;100993.19;6195414;28;20081;-73
2022/11/26 07:51:27;;;;;;;16.20;8.00;;;;;;;5.18;100.00;101001.81;6219814;28;20050;-73
2022/11/26 07:54:28;;;;;;;12.60;7.97;;;;;;;5.26;100.00;101012.00;6219762;28;20478;-74
2022/11/26 07:57:29;;;;;;;14.68;7.90;;;;;;;5.23;100.00;101015.50;6218038;28;20057;-73
2022/11/26 08:00:30;;;;;;;14.70;7.60;;;;;;;5.19;100.00;101005.28;6216242;28;20046;-74
2022/11/26 08:03:30;;;;;;;17.50;8.73;;;;;;;5.10;100.00;101006.31;6217854;28;20141;-74
2022/11/26 08:06:33;;;;;;;17.23;8.02;;;;;;;5.07;100.00;101002.97;6200979;28;20085;-74
2022/11/26 08:09:34;;;;;;;11.63;7.40;;;;;;;5.19;100.00;101002.69;6217694;28;20038;-74
2022/11/26 08:12:34;;;;;;;15.60;7.13;;;;;;;5.09;100.00;101006.38;6201963;28;20054;-74
2022/11/26 08:15:36;;;;;;;20.50;9.40;;;;;;;5.15;100.00;101008.81;6218977;28;20117;-74
2022/11/26 08:18:38;;;;;;;14.77;7.72;;;;;;;5.24;100.00;101013.75;6201701;28;20050;-74
2022/11/26 08:21:39;;;;;;;22.83;8.30;;;;;;;5.29;100.00;101016.22;6218021;28;20053;-74
2022/11/26 08:24:40;;;;;;;13.05;7.80;;;;;;;5.04;100.00;101015.09;6217815;28;20066;-74
2022/11/26 08:27:41;;;;;;;13.70;6.20;;;;;;;5.09;100.00;101024.47;6217877;28;20095;-74
2022/11/26 08:30:42;;;;;;;12.57;6.60;;;;;;;5.14;100.00;101028.63;6217851;28;20095;-74
2022/11/26 08:33:43;;;;;;;15.05;7.38;;;;;;;5.33;100.00;101035.97;6219018;28;20604;-74
2022/11/26 08:36:44;;;;;;;16.67;7.22;;;;;;;5.37;100.00;101038.44;6219140;28;20042;-74
2022/11/26 08:39:45;;;;;;;13.37;7.27;;;;;;;5.52;100.00;101037.25;6217911;28;20055;-75
2022/11/26 08:42:46;;;;;;;15.05;7.82;;;;;;;5.61;100.00;101049.13;6219006;28;20045;-74
2022/11/26 08:45:55;;;;;;;15.00;7.43;;;;;;;5.57;100.00;101053.50;6218826;28;20042;-75
2022/11/26 08:48:56;;;;;;;13.80;7.13;;;;;;;5.50;100.00;101048.50;6217369;28;20140;-75
2022/11/26 08:51:57;;;;;;;17.90;7.32;;;;;;;5.41;100.00;101054.75;6218654;28;20546;-74
2022/11/26 08:54:58;;;;;;;18.98;8.68;;;;;;;5.41;100.00;101060.78;6216784;28;20041;-74
2022/11/26 08:57:58;;;;;;;15.95;9.05;;;;;;;5.49;100.00;101049.41;6217019;28;20382;-74
2022/11/26 09:01:05;;;;;;;17.35;10.13;;;;;;;5.58;100.00;101044.88;6216486;28;20432;-74
2022/11/26 09:04:06;;;;;;;18.38;8.00;;;;;;;5.66;100.00;101057.59;6215606;28;20551;-75
2022/11/26 09:07:07;;;;;;;16.73;7.38;;;;;;;5.70;100.00;101053.22;6216457;28;20046;-74
2022/11/26 09:10:08;;;;;;;16.15;7.10;;;;;;;5.78;100.00;101051.28;6218171;28;20046;-74
2022/11/26 09:13:08;;;;;;;20.20;8.65;;;;;;;5.69;100.00;101048.94;6216352;28;20107;-74
2022/11/26 09:16:09;;;;;;;15.07;7.53;;;;;;;5.80;100.00;101063.28;6199873;28;20045;-74
2022/11/26 09:19:12;;;;;;;13.13;7.57;;;;;;;5.77;100.00;101062.53;6216969;28;20066;-74
2022/11/26 09:22:13;;;;;;;13.63;7.68;;;;;;;5.81;100.00;101066.75;6216984;28;20053;-75
2022/11/26 09:25:14;;;;;;;18.55;6.97;;;;;;;5.71;100.00;101062.69;6217074;28;20410;-74
2022/11/26 09:28:15;;;;;;;11.45;6.43;;;;;;;5.48;100.00;101071.00;6218192;28;20053;-74
2022/11/26 09:31:16;;;;;;;15.93;7.40;;;;;;;5.62;100.00;101074.09;6217068;28;20070;-74
2022/11/26 09:34:17;;;;;;;14.07;7.53;;;;;;;5.73;100.00;101084.22;6220135;28;20046;-74
2022/11/26 09:37:18;;;;;;;19.00;9.07;;;;;;;5.55;100.00;101080.34;6324942;27;20077;-74
2022/11/26 09:40:24;;;;;;;14.17;6.93;;;;;;;5.49;100.00;101076.13;6222401;28;20452;-74
2022/11/26 09:43:28;;;;;;;15.40;7.43;;;;;;;5.80;100.00;101080.59;6324681;27;20302;-75
2022/11/26 09:46:50;;;;;;;22.92;9.13;;;;;;;5.72;100.00;101077.31;6204565;28;20098;-74
2022/11/26 09:50:21;;;;;;;23.23;10.23;;;;;;;5.67;100.00;101077.44;6221052;28;20038;-74
2022/11/26 09:53:26;;;;;;;22.60;7.68;;;;;;;5.59;100.00;101092.31;6220730;28;20045;-74
2022/11/26 09:56:27;;;;;;;12.23;6.22;;;;;;;5.67;100.00;101095.56;6222027;28;20141;-74
2022/11/26 09:59:29;;;;;;;15.95;8.02;;;;;;;5.78;100.00;101097.91;6221763;28;20482;-74
2022/11/26 10:02:29;;;;;;;11.50;6.07;;;;;;;5.72;100.00;101093.72;6220659;28;20041;-74
2022/11/26 10:05:43;;;;;;;18.27;7.38;;;;;;;5.61;100.00;101093.97;6220598;28;20046;-74
2022/11/26 10:09:10;;;;;;;16.70;7.57;;;;;;;5.70;100.00;101098.06;6220698;28;20042;-74
2022/11/26 10:12:30;;;;;;;9.80;5.78;;;;;;;5.83;100.00;101090.88;6220478;28;20074;-74
2022/11/26 10:15:41;;;;;;;18.83;8.65;;;;;;;5.85;100.00;101091.69;6221656;28;20125;-74
2022/11/26 10:19:08;;;;;;;10.48;7.07;;;;;;;5.81;100.00;101090.06;6204064;28;20115;-73
2022/11/26 10:22:21;;;;;;;18.85;7.75;;;;;;;5.88;100.00;101080.41;6220174;28;20133;-74
2022/11/26 10:25:27;;;;;;;15.77;7.85;;;;;;;5.84;100.00;101102.94;6221507;28;20057;-74
2022/11/26 10:28:42;;;;;;;23.63;7.68;;;;;;;5.77;100.00;101099.66;6221447;28;20094;-74
2022/11/26 10:31:46;;;;;;;18.30;8.55;;;;;;;5.79;100.00;101108.22;6221435;28;20042;-74
2022/11/26 10:34:54;;;;;;;27.52;15.73;;;;;;;5.81;100.00;101103.88;6220107;28;20048;-74
2022/11/26 10:37:56;;;;;;;15.75;8.57;;;;;;;5.73;100.00;101100.59;6220134;28;20045;-74
2022/11/26 10:40:56;;;;;;;15.93;8.23;;;;;;;5.76;100.00;101097.94;6221717;28;20042;-75
2022/11/26 10:44:32;;;;;;;14.27;6.72;;;;;;;5.71;100.00;101102.38;6220252;28;20046;-75
2022/11/26 10:47:33;;;;;;;12.15;6.70;;;;;;;5.80;100.00;101101.31;6221030;28;20046;-74
2022/11/26 10:50:34;;;;;;;21.65;7.78;;;;;;;5.56;100.00;101098.44;6221117;28;20070;-75
2022/11/26 10:53:48;;;;;;;14.32;6.57;;;;;;;5.68;100.00;101096.41;6219718;28;20053;-74
2022/11/26 10:56:52;;;;;;;16.60;7.95;;;;;;;5.85;100.00;101104.66;6220903;28;20038;-74
2022/11/26 10:59:54;;;;;;;14.10;7.57;;;;;;;5.84;100.00;101096.00;6219470;28;20038;-75
2022/11/26 11:02:55;;;;;;;11.55;5.80;;;;;;;5.90;100.00;101087.22;6219525;28;20438;-74
2022/11/26 11:06:20;;;;;;;20.50;8.05;;;;;;;5.88;100.00;101094.19;6219522;28;20409;-74
2022/11/26 11:09:30;;;;;;;10.02;6.18;;;;;;;5.92;100.00;101087.19;6228025;28;20062;-74
2022/11/26 11:12:31;;;;;;;13.48;7.35;;;;;;;5.89;100.00;101082.97;6203106;28;20046;-74
2022/11/26 11:15:34;;;;;;;20.17;8.00;;;;;;;5.94;100.00;101083.69;6220851;28;20087;-74
2022/11/26 11:18:35;;;;;;;22.85;8.90;;;;;;;6.01;100.00;101082.69;6220488;28;20052;-74
2022/11/26 11:21:37;;;;;;;19.40;8.88;;;;;;;5.91;100.00;101080.31;6202885;28;20098;-74
2022/11/26 11:24:44;;;;;;;21.33;8.33;;;;;;;5.95;100.00;101092.31;6219147;28;20050;-74
2022/11/26 11:27:45;;;;;;;12.32;6.57;;;;;;;5.96;100.00;101092.28;6220256;28;20766;-74
2022/11/26 11:30:58;;;;;;;15.95;7.70;;;;;;;5.91;100.00;101086.34;6218891;28;20057;-75
2022/11/26 11:34:19;;;;;;;14.63;7.63;;;;;;;5.83;100.00;101090.88;6220185;28;20046;-74
2022/11/26 11:37:20;;;;;;;14.93;6.90;;;;;;;5.93;100.00;101084.59;6220065;28;20099;-74
2022/11/26 11:40:27;;;;;;;15.63;8.45;;;;;;;5.83;100.00;101093.47;6220186;28;20037;-74
2022/11/26 11:43:34;;;;;;;17.67;7.30;;;;;;;5.90;100.00;101094.16;6218732;28;20042;-74
2022/11/26 11:46:50;;;;;;;12.57;5.72;;;;;;;5.92;100.00;101088.03;6220039;28;20049;-74
2022/11/26 11:49:54;;;;;;;19.08;7.38;;;;;;;5.93;100.00;101089.75;6220179;28;20045;-74
2022/11/26 11:53:17;;;;;;;18.98;7.22;;;;;;;5.88;100.00;101086.41;6218642;28;20106;-74
2022/11/26 11:56:41;;;;;;;17.80;6.88;;;;;;;5.89;100.00;101079.50;6202051;28;20057;-74
2022/11/26 12:00:14;;;;;;;11.32;6.13;;;;;;;5.94;100.00;101070.72;6218522;28;20103;-74
2022/11/26 12:03:15;;;;;;;;;;;;;;;5.78;100.00;101077.19;6252803;28;20138;-73
2022/11/26 12:06:21;;;;;;;6.22;3.33;;;;;;;5.90;100.00;101071.69;6220001;28;19925;-74
2022/11/26 12:09:25;;;;;;;14.77;5.97;;;;;;;6.01;100.00;101077.50;6219594;28;20076;-74
2022/11/26 12:12:30;;;;;;;20.27;7.45;;;;;;;5.96;100.00;101075.91;6219404;28;20049;-74
2022/11/26 12:15:47;;;;;;;15.05;6.65;;;;;;;6.06;100.00;101079.97;6219467;28;20436;-74
2022/11/26 12:18:56;;;;;;;12.90;6.20;;;;;;;6.05;100.00;101062.69;6303969;28;20054;-73
2022/11/26 12:22:03;;;;;;;12.70;5.93;;;;;;;5.93;100.00;101066.44;6218108;28;20046;-74
2022/11/26 12:25:21;;;;;;;15.02;6.78;;;;;;;5.90;100.00;101073.44;6217921;28;20391;-74
2022/11/26 12:28:26;;;;;;;15.05;7.55;;;;;;;5.99;100.00;101066.31;6218009;28;20122;-74
2022/11/26 12:31:42;;;;;;;14.70;7.22;;;;;;;6.09;100.00;101076.44;6201583;28;20493;-74
2022/11/26 12:34:48;;;;;;;13.95;6.75;;;;;;;6.10;100.00;101075.56;6217890;28;20042;-75
2022/11/26 12:37:56;;;;;;;15.65;7.00;;;;;;;6.05;100.00;101071.34;6218954;28;20048;-76
2022/11/26 12:41:24;;;;;;;19.90;7.53;;;;;;;6.10;100.00;101075.56;6217497;28;20410;-75
2022/11/26 12:44:35;;;;;;;24.13;10.50;;;;;;;6.00;100.00;101068.00;6227113;28;20479;-74
2022/11/26 12:47:49;;;;;;;14.20;7.50;;;;;;;5.90;100.00;101060.50;6201367;28;20054;-75
2022/11/26 12:50:58;;;;;;;19.40;7.70;;;;;;;5.96;100.00;101070.72;6218064;28;20371;-74
2022/11/26 12:54:08;;;;;;;19.50;7.90;;;;;;;5.86;100.00;101062.28;6218735;28;20073;-74
2022/11/26 12:57:19;;;;;;;15.75;7.95;;;;;;;5.80;100.00;101070.22;6218770;28;20482;-76
2022/11/26 13:00:29;;;;;;;21.00;8.75;;;;;;;5.73;100.00;101079.03;6217380;28;20111;-76
2022/11/26 13:03:32;;;;;;;22.70;9.30;;;;;;;5.64;100.00;101082.69;6217401;28;20042;-76
2022/11/26 13:06:36;;;;;;;;;;;;;;;5.76;100.00;101081.53;6218838;28;20067;-76
2022/11/26 13:10:06;;;;;;;14.82;8.20;;;;;;;5.83;100.00;101083.94;6218108;28;19927;-75
2022/11/26 13:13:45;;;;;;;23.95;10.60;;;;;;;5.73;100.00;101082.47;6217327;28;20490;-75
2022/11/26 13:16:57;;;;;;;19.05;7.10;;;;;;;5.70;100.00;101084.28;6217138;28;20608;-76
2022/11/26 13:20:22;;;;;;;21.63;9.98;;;;;;;5.68;100.00;101092.09;6217269;28;20478;-76
2022/11/26 13:23:41;;;;;;;18.48;7.40;;;;;;;5.68;100.00;101102.44;6217210;28;20042;-76
2022/11/26 13:26:57;;;;;;;20.25;8.45;;;;;;;5.69;100.00;101108.50;6218295;28;20164;-76
2022/11/26 13:30:13;;;;;;;16.88;7.30;;;;;;;5.73;100.00;101099.75;6216981;28;20111;-75
2022/11/26 13:33:40;;;;;;;21.05;8.80;;;;;;;5.75;100.00;101106.59;6217057;28;20045;-76
2022/11/26 13:36:41;;;;;;;19.77;9.68;;;;;;;5.74;100.00;101107.47;6218016;28;20046;-77
2022/11/26 13:39:41;;;;;;;20.77;9.45;;;;;;;5.70;100.00;101102.41;6200529;28;20093;-77
2022/11/26 13:43:02;;;;;;;22.98;9.13;;;;;;;5.62;100.00;101106.06;6216570;28;20049;-77
2022/11/26 13:46:21;;;;;;;18.85;9.25;;;;;;;5.49;100.00;101108.94;6216844;28;20049;-76
2022/11/26 13:49:47;;;;;;;21.85;9.85;;;;;;;5.46;100.00;101115.06;6200410;28;20050;-76
2022/11/26 13:53:09;;;;;;;16.83;7.47;;;;;;;5.53;100.00;101118.34;6200354;28;20095;-76
2022/11/26 13:56:12;;;;;;;15.90;7.13;;;;;;;5.53;100.00;101111.44;6217886;28;20041;-76
2022/11/26 13:59:17;;;;;;;;;;;;;;;5.44;100.00;101114.25;6216925;28;20467;-77
2022/11/26 14:02:34;;;;;;;38.00;20.27;;;;;;;5.44;100.00;101114.25;6200014;28;20410;-76
2022/11/26 14:05:58;;;;;;;20.95;11.02;;;;;;;5.60;100.00;101113.00;6200042;28;20529;-76
2022/11/26 14:08:58;;;;;;;16.52;8.18;;;;;;;5.66;100.00;101114.56;6218859;28;20050;-76
2022/11/26 14:11:59;;;;;;;17.55;8.00;;;;;;;5.70;100.00;101120.53;6216408;28;20052;-76